Share

Rolla, KS

1:03 AM CDT on April 25, 2014 (GMT -0500)
RAWS CIMARRON KS US (MCGLK1) Elev 3538 ft | 37.14 °N, 101.90 °W | Change Station

Current weather conditions updated 40 minutes ago

Clear
Clear
49 °F
Feels Like 49 °F
N
3
Wind Variable Wind from South
Gusts 7.0 mph
Sunrise 6:59 AM
Sunset 8:30 PM
Moon Waning Crescent

Today is forecast to be Much Warmer than yesterday.

Pressure 29.85 in
Visibility 10.0 miles
Clouds Clear
Windchill 49 °F
Dew Point 18 °F
Humidity 29%
Rainfall 0.01 in
Snow Depth Not available.
UV 0 out of 16
Pollen 10.20 out of 12
Air Quality Not available.
Flu Activity No Activity
METAR KGUY 250553Z AUTO 20005KT 10SM CLR 08/M04 A2992 RMK AO2 SLP107 T00831039 10217 20083 402220078 58002

More Conditions Fewer Conditions

Pressure 29.85 in
Visibility 10.0 miles
Clouds Clear
Windchill 49 °F
Dew Point 18 °F
Humidity 29%
Rainfall 0.01 in
Snow Depth Not available.
UV 0 out of 16
Pollen 10.20 out of 12
Air Quality Not available.
Flu Activity No Activity
METAR KGUY 250553Z AUTO 20005KT 10SM CLR 08/M04 A2992 RMK AO2 SLP107 T00831039 10217 20083 402220078 58002

More Conditions Fewer Conditions

10-Day Weather Forecast

Almanac

Astronomy

Apr. 25, 2014 Rise Set
Actual Time 6:59 AM CDT 8:30 PM CDT
Civil Twilight 6:31 AM CDT 8:58 PM CDT
Nautical Twilight 5:58 AM CDT 9:31 PM CDT
Astronomical Twilight 5:23 AM CDT 10:06 PM CDT
Moon 4:42 AM CDT 4:59 PM CDT
Length of Visible Light 14h 26m
Length of Day
13h 31m
Tomorrow will be 2m 7s longer.
Waning Crescent, 19% of the Moon is Illuminated
Today
Waning Crescent
Apr 29
New
May 6
First Quarter
May 14
Full
May 21
Last Quarter

Today's Extremes

State Highs State Lows

Community

  • Deer in evening light
    Deer in evening light
  • Critter
    Critter
  • Jone Runs Falls
    Jone Runs Falls
  • Easter in Shenandoah National Park
    Easter in Shenandoah National Park
  • Sunset at Apalachicola Bay, Florida
    Sunset at Apalachicola Bay, Florida

WunderPhotos

Upload Photos

1,704,865 photos uploaded!

WunderBlogs® & News

Nearby

Snow Depth

Station Depth Elevation
No new snow has been reported.

Coastal Water Temperatures

Place Temperature
No Stations Reporting

Earthquake Activity

City Distance Mag. Time & Date
No recent earthquake activity has been reported nearby.
Minimum magnitude displayed is 2.5.

Nearby Weather Stations

Station Location Temp. Windchill Dew Point Humidity Wind Precip. Elev Updated Type
RAWS CIMARRON KS, Elkhart, KS 49 °F 49 °F 18 °F 29% South  at  3 mph 0.00 in / hr 3538 ft 12:23 AM CDT MADIS
Fort Wiegers, Elkhart, KS 44.3 °F 42 °F 25 °F 47% North  at  4.0 mph 0.00 in / hr 3554 ft 1:03 AM CDT Rapid Fire

Show More Stations Show Fewer Stations

What do you think?

We're not finished. Please let us know what you like, what you don't like, and what you are still missing.